sensor_id;sensor_type;location;lat;lon;timestamp;P1;durP1;ratioP1;P2;durP2;ratioP2
42084;SDS011;27746;52.228;20.890;2023-01-16T00:00:02;10.52;;;6.07;;
42084;SDS011;27746;52.228;20.890;2023-01-16T00:02:30;11.20;;;6.45;;
42084;SDS011;27746;52.228;20.890;2023-01-16T00:04:58;9.35;;;4.93;;
42084;SDS011;27746;52.228;20.890;2023-01-16T00:07:24;12.60;;;5.35;;
42084;SDS011;27746;52.228;20.890;2023-01-16T00:09:53;10.77;;;6.40;;
42084;SDS011;27746;52.228;20.890;2023-01-16T00:12:20;11.35;;;5.85;;
42084;SDS011;27746;52.228;20.890;2023-01-16T00:14:46;11.38;;;5.70;;
42084;SDS011;27746;52.228;20.890;2023-01-16T00:17:13;10.32;;;6.20;;
42084;SDS011;27746;52.228;20.890;2023-01-16T00:19:40;10.82;;;6.07;;
42084;SDS011;27746;52.228;20.890;2023-01-16T00:22:07;9.75;;;6.30;;
42084;SDS011;27746;52.228;20.890;2023-01-16T00:24:34;8.30;;;5.45;;
42084;SDS011;27746;52.228;20.890;2023-01-16T00:27:02;9.73;;;5.78;;
42084;SDS011;27746;52.228;20.890;2023-01-16T00:29:29;9.60;;;4.82;;
42084;SDS011;27746;52.228;20.890;2023-01-16T00:31:56;9.60;;;5.50;;
42084;SDS011;27746;52.228;20.890;2023-01-16T00:34:23;10.32;;;4.93;;
42084;SDS011;27746;52.228;20.890;2023-01-16T00:36:50;9.15;;;4.10;;
42084;SDS011;27746;52.228;20.890;2023-01-16T00:39:17;8.52;;;4.30;;
42084;SDS011;27746;52.228;20.890;2023-01-16T00:41:44;9.15;;;4.25;;
42084;SDS011;27746;52.228;20.890;2023-01-16T00:44:12;8.23;;;4.43;;
42084;SDS011;27746;52.228;20.890;2023-01-16T00:46:39;7.97;;;4.57;;
42084;SDS011;27746;52.228;20.890;2023-01-16T00:49:06;9.45;;;4.78;;
42084;SDS011;27746;52.228;20.890;2023-01-16T00:51:33;8.60;;;4.88;;
42084;SDS011;27746;52.228;20.890;2023-01-16T00:54:00;10.48;;;4.72;;
42084;SDS011;27746;52.228;20.890;2023-01-16T00:56:27;7.00;;;4.35;;
42084;SDS011;27746;52.228;20.890;2023-01-16T00:58:54;10.52;;;5.20;;
42084;SDS011;27746;52.228;20.890;2023-01-16T01:01:22;7.93;;;4.75;;
42084;SDS011;27746;52.228;20.890;2023-01-16T01:03:49;9.55;;;5.10;;
42084;SDS011;27746;52.228;20.890;2023-01-16T01:06:15;8.65;;;4.82;;
42084;SDS011;27746;52.228;20.890;2023-01-16T01:08:42;8.65;;;4.47;;
42084;SDS011;27746;52.228;20.890;2023-01-16T01:11:10;8.93;;;5.18;;
42084;SDS011;27746;52.228;20.890;2023-01-16T01:13:38;7.75;;;4.50;;
42084;SDS011;27746;52.228;20.890;2023-01-16T01:16:06;9.35;;;5.15;;
42084;SDS011;27746;52.228;20.890;2023-01-16T01:18:34;10.23;;;4.95;;
42084;SDS011;27746;52.228;20.890;2023-01-16T01:21:02;9.93;;;4.93;;
42084;SDS011;27746;52.228;20.890;2023-01-16T01:23:29;10.57;;;4.75;;
42084;SDS011;27746;52.228;20.890;2023-01-16T01:25:56;8.40;;;5.10;;
42084;SDS011;27746;52.228;20.890;2023-01-16T01:28:24;7.78;;;5.22;;
42084;SDS011;27746;52.228;20.890;2023-01-16T01:30:50;8.63;;;4.63;;
42084;SDS011;27746;52.228;20.890;2023-01-16T01:33:17;9.30;;;5.15;;
42084;SDS011;27746;52.228;20.890;2023-01-16T01:35:45;7.47;;;4.20;;
42084;SDS011;27746;52.228;20.890;2023-01-16T01:38:12;9.68;;;5.00;;
42084;SDS011;27746;52.228;20.890;2023-01-16T01:40:39;9.43;;;5.13;;
42084;SDS011;27746;52.228;20.890;2023-01-16T01:43:09;9.75;;;4.38;;
42084;SDS011;27746;52.228;20.890;2023-01-16T01:45:39;11.45;;;5.75;;
42084;SDS011;27746;52.228;20.890;2023-01-16T01:48:13;8.18;;;4.80;;
42084;SDS011;27746;52.228;20.890;2023-01-16T01:50:50;9.10;;;4.55;;
42084;SDS011;27746;52.228;20.890;2023-01-16T01:53:22;8.80;;;4.55;;
42084;SDS011;27746;52.228;20.890;2023-01-16T01:55:53;9.38;;;4.82;;
42084;SDS011;27746;52.228;20.890;2023-01-16T01:58:22;10.85;;;4.80;;
42084;SDS011;27746;52.228;20.890;2023-01-16T02:00:52;8.20;;;4.53;;
42084;SDS011;27746;52.228;20.890;2023-01-16T02:03:22;9.18;;;5.03;;
42084;SDS011;27746;52.228;20.890;2023-01-16T02:05:54;8.65;;;4.90;;
42084;SDS011;27746;52.228;20.890;2023-01-16T02:08:24;9.57;;;5.55;;
42084;SDS011;27746;52.228;20.890;2023-01-16T02:10:56;8.43;;;5.00;;
42084;SDS011;27746;52.228;20.890;2023-01-16T02:13:28;8.73;;;5.15;;
42084;SDS011;27746;52.228;20.890;2023-01-16T02:15:55;10.60;;;4.90;;
42084;SDS011;27746;52.228;20.890;2023-01-16T02:18:40;10.35;;;5.10;;
42084;SDS011;27746;52.228;20.890;2023-01-16T02:21:33;9.30;;;4.88;;
42084;SDS011;27746;52.228;20.890;2023-01-16T02:24:27;8.65;;;4.80;;
42084;SDS011;27746;52.228;20.890;2023-01-16T02:27:28;8.10;;;5.20;;
42084;SDS011;27746;52.228;20.890;2023-01-16T02:33:12;10.63;;;5.28;;
42084;SDS011;27746;52.228;20.890;2023-01-16T02:35:49;9.70;;;5.50;;
42084;SDS011;27746;52.228;20.890;2023-01-16T02:38:26;10.90;;;5.30;;
42084;SDS011;27746;52.228;20.890;2023-01-16T02:41:05;10.32;;;5.55;;
42084;SDS011;27746;52.228;20.890;2023-01-16T02:43:42;9.90;;;5.72;;
42084;SDS011;27746;52.228;20.890;2023-01-16T02:46:19;9.15;;;5.35;;
42084;SDS011;27746;52.228;20.890;2023-01-16T02:48:59;10.60;;;5.75;;
42084;SDS011;27746;52.228;20.890;2023-01-16T02:51:36;9.30;;;5.35;;
42084;SDS011;27746;52.228;20.890;2023-01-16T02:54:10;9.98;;;5.32;;
42084;SDS011;27746;52.228;20.890;2023-01-16T02:56:43;9.98;;;5.90;;
42084;SDS011;27746;52.228;20.890;2023-01-16T02:59:15;10.50;;;5.72;;
42084;SDS011;27746;52.228;20.890;2023-01-16T03:01:44;11.63;;;6.05;;
42084;SDS011;27746;52.228;20.890;2023-01-16T03:09:37;10.90;;;6.53;;
42084;SDS011;27746;52.228;20.890;2023-01-16T03:12:15;10.82;;;6.18;;
42084;SDS011;27746;52.228;20.890;2023-01-16T03:14:51;9.52;;;5.97;;
42084;SDS011;27746;52.228;20.890;2023-01-16T03:17:43;11.45;;;6.32;;
42084;SDS011;27746;52.228;20.890;2023-01-16T03:20:24;11.30;;;7.07;;
42084;SDS011;27746;52.228;20.890;2023-01-16T03:22:59;11.95;;;6.40;;
42084;SDS011;27746;52.228;20.890;2023-01-16T03:25:33;13.68;;;7.28;;
42084;SDS011;27746;52.228;20.890;2023-01-16T03:28:06;13.57;;;7.68;;
42084;SDS011;27746;52.228;20.890;2023-01-16T03:30:42;10.05;;;6.28;;
42084;SDS011;27746;52.228;20.890;2023-01-16T03:33:19;11.02;;;6.20;;
42084;SDS011;27746;52.228;20.890;2023-01-16T03:35:57;11.30;;;6.15;;
42084;SDS011;27746;52.228;20.890;2023-01-16T03:38:30;10.32;;;6.85;;
42084;SDS011;27746;52.228;20.890;2023-01-16T03:40:58;14.63;;;7.28;;
42084;SDS011;27746;52.228;20.890;2023-01-16T03:43:30;11.93;;;7.03;;
42084;SDS011;27746;52.228;20.890;2023-01-16T03:46:01;11.48;;;6.88;;
42084;SDS011;27746;52.228;20.890;2023-01-16T03:48:33;11.77;;;6.80;;
42084;SDS011;27746;52.228;20.890;2023-01-16T03:51:06;12.68;;;7.28;;
42084;SDS011;27746;52.228;20.890;2023-01-16T03:53:37;12.05;;;6.47;;
42084;SDS011;27746;52.228;20.890;2023-01-16T03:56:11;13.18;;;7.15;;
42084;SDS011;27746;52.228;20.890;2023-01-16T03:58:45;12.38;;;7.22;;
42084;SDS011;27746;52.228;20.890;2023-01-16T04:01:16;13.75;;;7.47;;
42084;SDS011;27746;52.228;20.890;2023-01-16T04:03:49;10.68;;;7.32;;
42084;SDS011;27746;52.228;20.890;2023-01-16T04:06:24;13.98;;;8.05;;
42084;SDS011;27746;52.228;20.890;2023-01-16T04:08:56;12.00;;;7.28;;
42084;SDS011;27746;52.228;20.890;2023-01-16T04:11:24;13.40;;;7.68;;
42084;SDS011;27746;52.228;20.890;2023-01-16T04:13:52;14.43;;;8.13;;
42084;SDS011;27746;52.228;20.890;2023-01-16T04:16:23;12.30;;;7.40;;
42084;SDS011;27746;52.228;20.890;2023-01-16T04:18:50;14.75;;;7.65;;
42084;SDS011;27746;52.228;20.890;2023-01-16T04:21:19;10.07;;;7.22;;
42084;SDS011;27746;52.228;20.890;2023-01-16T04:23:54;15.10;;;7.72;;
42084;SDS011;27746;52.228;20.890;2023-01-16T04:26:22;12.57;;;7.78;;
42084;SDS011;27746;52.228;20.890;2023-01-16T04:28:49;15.25;;;9.35;;
42084;SDS011;27746;52.228;20.890;2023-01-16T04:31:20;15.10;;;9.40;;
42084;SDS011;27746;52.228;20.890;2023-01-16T04:33:48;14.85;;;8.05;;
42084;SDS011;27746;52.228;20.890;2023-01-16T04:36:15;14.10;;;7.75;;
42084;SDS011;27746;52.228;20.890;2023-01-16T04:38:44;16.00;;;7.63;;
42084;SDS011;27746;52.228;20.890;2023-01-16T04:41:11;12.73;;;7.18;;
42084;SDS011;27746;52.228;20.890;2023-01-16T04:43:58;13.75;;;7.97;;
42084;SDS011;27746;52.228;20.890;2023-01-16T04:46:25;13.25;;;7.95;;
42084;SDS011;27746;52.228;20.890;2023-01-16T04:48:52;11.50;;;6.97;;
42084;SDS011;27746;52.228;20.890;2023-01-16T04:51:19;12.23;;;7.50;;
42084;SDS011;27746;52.228;20.890;2023-01-16T04:53:47;14.18;;;8.07;;
42084;SDS011;27746;52.228;20.890;2023-01-16T04:56:14;13.50;;;7.78;;
42084;SDS011;27746;52.228;20.890;2023-01-16T04:58:41;14.18;;;8.57;;
42084;SDS011;27746;52.228;20.890;2023-01-16T05:01:08;15.15;;;7.00;;
42084;SDS011;27746;52.228;20.890;2023-01-16T05:03:35;12.70;;;6.85;;
42084;SDS011;27746;52.228;20.890;2023-01-16T05:06:02;13.43;;;8.10;;
42084;SDS011;27746;52.228;20.890;2023-01-16T05:08:29;12.52;;;7.50;;
42084;SDS011;27746;52.228;20.890;2023-01-16T05:10:57;12.63;;;6.82;;
42084;SDS011;27746;52.228;20.890;2023-01-16T05:13:26;13.15;;;7.53;;
42084;SDS011;27746;52.228;20.890;2023-01-16T05:15:53;13.65;;;5.80;;
42084;SDS011;27746;52.228;20.890;2023-01-16T05:18:20;14.10;;;7.03;;
42084;SDS011;27746;52.228;20.890;2023-01-16T05:20:47;14.32;;;6.93;;
42084;SDS011;27746;52.228;20.890;2023-01-16T05:23:14;10.10;;;6.25;;
42084;SDS011;27746;52.228;20.890;2023-01-16T05:25:41;13.23;;;6.10;;
42084;SDS011;27746;52.228;20.890;2023-01-16T05:28:09;11.23;;;6.75;;
42084;SDS011;27746;52.228;20.890;2023-01-16T05:30:37;10.95;;;6.32;;
42084;SDS011;27746;52.228;20.890;2023-01-16T05:33:04;11.30;;;6.97;;
42084;SDS011;27746;52.228;20.890;2023-01-16T05:35:31;11.70;;;6.15;;
42084;SDS011;27746;52.228;20.890;2023-01-16T05:37:58;12.32;;;6.28;;
42084;SDS011;27746;52.228;20.890;2023-01-16T05:40:25;9.45;;;6.13;;
42084;SDS011;27746;52.228;20.890;2023-01-16T05:42:52;10.90;;;6.75;;
42084;SDS011;27746;52.228;20.890;2023-01-16T05:45:20;10.82;;;5.72;;
42084;SDS011;27746;52.228;20.890;2023-01-16T05:47:47;9.60;;;5.90;;
42084;SDS011;27746;52.228;20.890;2023-01-16T05:50:14;11.80;;;6.50;;
42084;SDS011;27746;52.228;20.890;2023-01-16T05:52:41;11.55;;;5.75;;
42084;SDS011;27746;52.228;20.890;2023-01-16T05:55:08;12.55;;;7.10;;
42084;SDS011;27746;52.228;20.890;2023-01-16T05:57:37;9.20;;;5.88;;
42084;SDS011;27746;52.228;20.890;2023-01-16T06:00:05;10.85;;;6.38;;
42084;SDS011;27746;52.228;20.890;2023-01-16T06:02:34;11.13;;;6.25;;
42084;SDS011;27746;52.228;20.890;2023-01-16T06:05:01;9.88;;;6.20;;
42084;SDS011;27746;52.228;20.890;2023-01-16T06:07:28;10.82;;;5.63;;
42084;SDS011;27746;52.228;20.890;2023-01-16T06:09:55;11.13;;;5.88;;
42084;SDS011;27746;52.228;20.890;2023-01-16T06:12:22;10.00;;;5.80;;
42084;SDS011;27746;52.228;20.890;2023-01-16T06:14:50;13.07;;;6.30;;
42084;SDS011;27746;52.228;20.890;2023-01-16T06:17:17;10.95;;;6.40;;
42084;SDS011;27746;52.228;20.890;2023-01-16T06:19:45;11.95;;;6.72;;
42084;SDS011;27746;52.228;20.890;2023-01-16T06:22:12;14.27;;;7.82;;
42084;SDS011;27746;52.228;20.890;2023-01-16T06:24:39;15.48;;;7.22;;
42084;SDS011;27746;52.228;20.890;2023-01-16T06:27:06;13.00;;;6.45;;
42084;SDS011;27746;52.228;20.890;2023-01-16T06:29:33;11.07;;;7.28;;
42084;SDS011;27746;52.228;20.890;2023-01-16T06:32:01;10.10;;;6.18;;
42084;SDS011;27746;52.228;20.890;2023-01-16T06:34:28;9.57;;;6.03;;
42084;SDS011;27746;52.228;20.890;2023-01-16T06:36:56;11.43;;;6.60;;
42084;SDS011;27746;52.228;20.890;2023-01-16T06:39:23;10.30;;;6.18;;
42084;SDS011;27746;52.228;20.890;2023-01-16T06:41:50;13.77;;;6.20;;
42084;SDS011;27746;52.228;20.890;2023-01-16T06:44:17;12.48;;;6.68;;
42084;SDS011;27746;52.228;20.890;2023-01-16T06:46:44;14.05;;;7.15;;
42084;SDS011;27746;52.228;20.890;2023-01-16T06:49:11;11.40;;;5.85;;
42084;SDS011;27746;52.228;20.890;2023-01-16T06:51:38;8.05;;;5.28;;
42084;SDS011;27746;52.228;20.890;2023-01-16T06:54:08;10.07;;;5.90;;
42084;SDS011;27746;52.228;20.890;2023-01-16T06:56:35;11.82;;;6.15;;
42084;SDS011;27746;52.228;20.890;2023-01-16T06:59:02;9.13;;;5.45;;
42084;SDS011;27746;52.228;20.890;2023-01-16T07:01:29;10.82;;;5.55;;
42084;SDS011;27746;52.228;20.890;2023-01-16T07:03:56;10.65;;;5.95;;
42084;SDS011;27746;52.228;20.890;2023-01-16T07:06:23;10.73;;;6.10;;
42084;SDS011;27746;52.228;20.890;2023-01-16T07:08:51;11.77;;;5.75;;
42084;SDS011;27746;52.228;20.890;2023-01-16T07:11:20;10.73;;;5.82;;
42084;SDS011;27746;52.228;20.890;2023-01-16T07:13:47;12.50;;;6.47;;
42084;SDS011;27746;52.228;20.890;2023-01-16T07:16:21;11.63;;;6.22;;
42084;SDS011;27746;52.228;20.890;2023-01-16T07:19:07;9.98;;;5.32;;
42084;SDS011;27746;52.228;20.890;2023-01-16T07:21:54;11.77;;;6.22;;
42084;SDS011;27746;52.228;20.890;2023-01-16T07:24:38;11.98;;;5.72;;
42084;SDS011;27746;52.228;20.890;2023-01-16T07:27:07;10.45;;;5.70;;
42084;SDS011;27746;52.228;20.890;2023-01-16T07:29:35;18.02;;;6.05;;
42084;SDS011;27746;52.228;20.890;2023-01-16T07:32:03;13.95;;;6.95;;
42084;SDS011;27746;52.228;20.890;2023-01-16T07:34:30;10.75;;;6.00;;
42084;SDS011;27746;52.228;20.890;2023-01-16T07:36:57;17.50;;;6.00;;
42084;SDS011;27746;52.228;20.890;2023-01-16T07:39:24;13.10;;;5.70;;
42084;SDS011;27746;52.228;20.890;2023-01-16T07:41:51;12.77;;;6.22;;
42084;SDS011;27746;52.228;20.890;2023-01-16T07:44:20;10.70;;;7.15;;
42084;SDS011;27746;52.228;20.890;2023-01-16T07:46:47;11.30;;;7.47;;
42084;SDS011;27746;52.228;20.890;2023-01-16T07:49:14;11.73;;;5.65;;
42084;SDS011;27746;52.228;20.890;2023-01-16T07:51:41;8.80;;;4.90;;
42084;SDS011;27746;52.228;20.890;2023-01-16T07:54:08;9.27;;;5.55;;
42084;SDS011;27746;52.228;20.890;2023-01-16T07:56:36;8.93;;;5.55;;
42084;SDS011;27746;52.228;20.890;2023-01-16T07:59:03;10.82;;;5.80;;
42084;SDS011;27746;52.228;20.890;2023-01-16T08:01:31;9.65;;;5.15;;
42084;SDS011;27746;52.228;20.890;2023-01-16T08:03:59;11.38;;;5.45;;
42084;SDS011;27746;52.228;20.890;2023-01-16T08:06:26;10.75;;;5.47;;
42084;SDS011;27746;52.228;20.890;2023-01-16T08:08:53;11.05;;;5.68;;
42084;SDS011;27746;52.228;20.890;2023-01-16T08:11:19;10.68;;;5.15;;
42084;SDS011;27746;52.228;20.890;2023-01-16T08:14:02;9.43;;;4.88;;
42084;SDS011;27746;52.228;20.890;2023-01-16T08:16:32;10.95;;;5.20;;
42084;SDS011;27746;52.228;20.890;2023-01-16T08:18:59;9.20;;;4.70;;
42084;SDS011;27746;52.228;20.890;2023-01-16T08:21:26;8.48;;;4.97;;
42084;SDS011;27746;52.228;20.890;2023-01-16T08:23:53;10.55;;;5.07;;
42084;SDS011;27746;52.228;20.890;2023-01-16T08:26:20;9.75;;;5.32;;
42084;SDS011;27746;52.228;20.890;2023-01-16T08:28:46;12.20;;;5.95;;
42084;SDS011;27746;52.228;20.890;2023-01-16T08:31:14;9.68;;;5.00;;
42084;SDS011;27746;52.228;20.890;2023-01-16T08:33:44;9.32;;;4.90;;
42084;SDS011;27746;52.228;20.890;2023-01-16T08:36:12;11.80;;;5.45;;
42084;SDS011;27746;52.228;20.890;2023-01-16T08:38:40;10.55;;;4.82;;
42084;SDS011;27746;52.228;20.890;2023-01-16T08:41:07;10.52;;;5.13;;
42084;SDS011;27746;52.228;20.890;2023-01-16T08:43:55;11.27;;;5.05;;
42084;SDS011;27746;52.228;20.890;2023-01-16T08:46:39;9.00;;;4.22;;
42084;SDS011;27746;52.228;20.890;2023-01-16T08:49:37;8.23;;;4.53;;
42084;SDS011;27746;52.228;20.890;2023-01-16T08:52:21;7.05;;;4.20;;
42084;SDS011;27746;52.228;20.890;2023-01-16T08:54:49;9.10;;;4.75;;
42084;SDS011;27746;52.228;20.890;2023-01-16T08:57:16;9.88;;;4.60;;
42084;SDS011;27746;52.228;20.890;2023-01-16T08:59:43;7.45;;;4.38;;
42084;SDS011;27746;52.228;20.890;2023-01-16T09:02:09;8.88;;;5.03;;
42084;SDS011;27746;52.228;20.890;2023-01-16T09:04:40;10.10;;;5.20;;
42084;SDS011;27746;52.228;20.890;2023-01-16T09:07:09;10.27;;;4.90;;
42084;SDS011;27746;52.228;20.890;2023-01-16T09:09:36;9.15;;;4.63;;
42084;SDS011;27746;52.228;20.890;2023-01-16T09:12:05;9.57;;;4.50;;
42084;SDS011;27746;52.228;20.890;2023-01-16T09:14:52;9.65;;;4.38;;
42084;SDS011;27746;52.228;20.890;2023-01-16T09:17:21;10.43;;;5.47;;
42084;SDS011;27746;52.228;20.890;2023-01-16T09:19:50;10.18;;;5.55;;
42084;SDS011;27746;52.228;20.890;2023-01-16T09:22:17;9.32;;;5.72;;
42084;SDS011;27746;52.228;20.890;2023-01-16T09:24:44;9.18;;;5.70;;
42084;SDS011;27746;52.228;20.890;2023-01-16T09:27:11;10.73;;;5.75;;
42084;SDS011;27746;52.228;20.890;2023-01-16T09:29:39;10.88;;;5.38;;
42084;SDS011;27746;52.228;20.890;2023-01-16T09:32:06;9.75;;;5.53;;
42084;SDS011;27746;52.228;20.890;2023-01-16T09:34:34;10.75;;;5.80;;
42084;SDS011;27746;52.228;20.890;2023-01-16T09:37:03;10.07;;;5.40;;
42084;SDS011;27746;52.228;20.890;2023-01-16T09:39:31;10.05;;;5.32;;
42084;SDS011;27746;52.228;20.890;2023-01-16T09:45:07;11.40;;;5.75;;
42084;SDS011;27746;52.228;20.890;2023-01-16T09:47:37;11.02;;;5.85;;
42084;SDS011;27746;52.228;20.890;2023-01-16T09:50:12;13.80;;;6.75;;
42084;SDS011;27746;52.228;20.890;2023-01-16T09:52:44;11.00;;;5.40;;
42084;SDS011;27746;52.228;20.890;2023-01-16T09:55:32;7.88;;;4.70;;
42084;SDS011;27746;52.228;20.890;2023-01-16T09:58:21;11.43;;;5.50;;
42084;SDS011;27746;52.228;20.890;2023-01-16T10:01:01;11.00;;;6.07;;
42084;SDS011;27746;52.228;20.890;2023-01-16T10:03:29;9.82;;;5.28;;
42084;SDS011;27746;52.228;20.890;2023-01-16T10:05:57;11.98;;;6.28;;
42084;SDS011;27746;52.228;20.890;2023-01-16T10:08:34;11.65;;;6.45;;
42084;SDS011;27746;52.228;20.890;2023-01-16T10:11:10;11.63;;;5.93;;
42084;SDS011;27746;52.228;20.890;2023-01-16T10:13:46;14.25;;;5.75;;
42084;SDS011;27746;52.228;20.890;2023-01-16T10:16:40;13.45;;;7.00;;
42084;SDS011;27746;52.228;20.890;2023-01-16T10:19:18;13.90;;;6.95;;
42084;SDS011;27746;52.228;20.890;2023-01-16T10:22:07;13.65;;;6.53;;
42084;SDS011;27746;52.228;20.890;2023-01-16T10:24:51;11.95;;;6.93;;
42084;SDS011;27746;52.228;20.890;2023-01-16T10:27:28;13.98;;;6.90;;
42084;SDS011;27746;52.228;20.890;2023-01-16T10:30:03;14.40;;;7.25;;
42084;SDS011;27746;52.228;20.890;2023-01-16T10:32:35;12.88;;;7.70;;
42084;SDS011;27746;52.228;20.890;2023-01-16T10:35:06;14.93;;;7.80;;
42084;SDS011;27746;52.228;20.890;2023-01-16T10:37:41;12.50;;;6.75;;
42084;SDS011;27746;52.228;20.890;2023-01-16T10:40:14;14.95;;;7.20;;
42084;SDS011;27746;52.228;20.890;2023-01-16T10:42:44;15.30;;;7.90;;
42084;SDS011;27746;52.228;20.890;2023-01-16T10:45:34;12.98;;;7.00;;
42084;SDS011;27746;52.228;20.890;2023-01-16T10:48:20;13.63;;;7.55;;
42084;SDS011;27746;52.228;20.890;2023-01-16T10:51:05;14.65;;;7.32;;
42084;SDS011;27746;52.228;20.890;2023-01-16T10:53:34;13.23;;;7.60;;
42084;SDS011;27746;52.228;20.890;2023-01-16T10:56:03;12.93;;;7.13;;
42084;SDS011;27746;52.228;20.890;2023-01-16T10:58:32;12.88;;;7.30;;
42084;SDS011;27746;52.228;20.890;2023-01-16T11:01:01;16.70;;;7.63;;
42084;SDS011;27746;52.228;20.890;2023-01-16T11:03:32;18.05;;;8.10;;
42084;SDS011;27746;52.228;20.890;2023-01-16T11:06:08;22.50;;;8.63;;
42084;SDS011;27746;52.228;20.890;2023-01-16T11:08:40;17.52;;;9.18;;
42084;SDS011;27746;52.228;20.890;2023-01-16T11:11:10;19.00;;;8.55;;
42084;SDS011;27746;52.228;20.890;2023-01-16T11:13:52;16.08;;;8.98;;
42084;SDS011;27746;52.228;20.890;2023-01-16T11:16:37;16.15;;;8.85;;
42084;SDS011;27746;52.228;20.890;2023-01-16T11:19:22;13.80;;;8.13;;
42084;SDS011;27746;52.228;20.890;2023-01-16T11:21:52;15.43;;;8.45;;
42084;SDS011;27746;52.228;20.890;2023-01-16T11:24:22;20.67;;;9.52;;
42084;SDS011;27746;52.228;20.890;2023-01-16T11:26:56;15.32;;;8.32;;
42084;SDS011;27746;52.228;20.890;2023-01-16T11:29:25;16.85;;;8.95;;
42084;SDS011;27746;52.228;20.890;2023-01-16T11:31:56;17.30;;;8.75;;
42084;SDS011;27746;52.228;20.890;2023-01-16T11:34:25;15.10;;;8.05;;
42084;SDS011;27746;52.228;20.890;2023-01-16T11:36:55;18.67;;;8.32;;
42084;SDS011;27746;52.228;20.890;2023-01-16T11:39:25;18.20;;;8.75;;
42084;SDS011;27746;52.228;20.890;2023-01-16T11:42:02;16.52;;;8.68;;
42084;SDS011;27746;52.228;20.890;2023-01-16T11:44:55;14.70;;;8.10;;
42084;SDS011;27746;52.228;20.890;2023-01-16T11:47:43;15.55;;;7.95;;
42084;SDS011;27746;52.228;20.890;2023-01-16T11:50:26;15.25;;;8.50;;
42084;SDS011;27746;52.228;20.890;2023-01-16T11:52:55;19.27;;;8.20;;
42084;SDS011;27746;52.228;20.890;2023-01-16T11:55:23;16.88;;;8.27;;
42084;SDS011;27746;52.228;20.890;2023-01-16T11:57:59;17.85;;;9.32;;
42084;SDS011;27746;52.228;20.890;2023-01-16T12:00:42;20.80;;;9.68;;
42084;SDS011;27746;52.228;20.890;2023-01-16T12:06:11;19.42;;;9.85;;
42084;SDS011;27746;52.228;20.890;2023-01-16T12:08:58;19.05;;;9.45;;
42084;SDS011;27746;52.228;20.890;2023-01-16T12:11:50;21.30;;;9.65;;
42084;SDS011;27746;52.228;20.890;2023-01-16T12:14:51;16.90;;;9.20;;
42084;SDS011;27746;52.228;20.890;2023-01-16T12:17:22;18.08;;;9.02;;
42084;SDS011;27746;52.228;20.890;2023-01-16T12:22:56;17.90;;;8.85;;
42084;SDS011;27746;52.228;20.890;2023-01-16T12:25:42;20.52;;;10.13;;
42084;SDS011;27746;52.228;20.890;2023-01-16T12:28:20;17.50;;;9.95;;
42084;SDS011;27746;52.228;20.890;2023-01-16T12:31:00;15.85;;;9.82;;
42084;SDS011;27746;52.228;20.890;2023-01-16T12:33:55;20.60;;;10.75;;
42084;SDS011;27746;52.228;20.890;2023-01-16T12:36:34;21.48;;;11.40;;
42084;SDS011;27746;52.228;20.890;2023-01-16T12:39:12;26.77;;;12.80;;
42084;SDS011;27746;52.228;20.890;2023-01-16T12:41:48;20.35;;;11.88;;
42084;SDS011;27746;52.228;20.890;2023-01-16T12:44:43;22.27;;;11.00;;
42084;SDS011;27746;52.228;20.890;2023-01-16T12:47:27;23.40;;;12.90;;
42084;SDS011;27746;52.228;20.890;2023-01-16T12:50:08;26.25;;;14.05;;
42084;SDS011;27746;52.228;20.890;2023-01-16T12:52:56;22.25;;;13.50;;
42084;SDS011;27746;52.228;20.890;2023-01-16T12:55:35;22.02;;;12.73;;
42084;SDS011;27746;52.228;20.890;2023-01-16T12:58:10;23.17;;;14.38;;
42084;SDS011;27746;52.228;20.890;2023-01-16T13:00:40;25.48;;;14.60;;
42084;SDS011;27746;52.228;20.890;2023-01-16T13:03:24;28.85;;;15.73;;
42084;SDS011;27746;52.228;20.890;2023-01-16T13:05:54;29.65;;;15.60;;
42084;SDS011;27746;52.228;20.890;2023-01-16T13:08:24;25.05;;;14.82;;
42084;SDS011;27746;52.228;20.890;2023-01-16T13:10:55;25.65;;;14.77;;
42084;SDS011;27746;52.228;20.890;2023-01-16T13:13:47;27.48;;;15.18;;
42084;SDS011;27746;52.228;20.890;2023-01-16T13:16:19;30.67;;;15.15;;
42084;SDS011;27746;52.228;20.890;2023-01-16T13:18:52;30.23;;;15.73;;
42084;SDS011;27746;52.228;20.890;2023-01-16T13:21:25;26.75;;;16.42;;
42084;SDS011;27746;52.228;20.890;2023-01-16T13:23:54;24.17;;;15.85;;
42084;SDS011;27746;52.228;20.890;2023-01-16T13:26:24;27.08;;;16.10;;
42084;SDS011;27746;52.228;20.890;2023-01-16T13:28:55;28.13;;;15.25;;
42084;SDS011;27746;52.228;20.890;2023-01-16T13:31:29;31.15;;;16.55;;
42084;SDS011;27746;52.228;20.890;2023-01-16T13:34:02;26.08;;;15.70;;
42084;SDS011;27746;52.228;20.890;2023-01-16T13:36:40;26.90;;;15.68;;
42084;SDS011;27746;52.228;20.890;2023-01-16T13:39:36;24.55;;;15.52;;
42084;SDS011;27746;52.228;20.890;2023-01-16T13:42:23;29.48;;;15.30;;
42084;SDS011;27746;52.228;20.890;2023-01-16T13:44:54;25.65;;;15.77;;
42084;SDS011;27746;52.228;20.890;2023-01-16T13:47:41;24.30;;;13.70;;
42084;SDS011;27746;52.228;20.890;2023-01-16T13:50:15;26.05;;;14.93;;
42084;SDS011;27746;52.228;20.890;2023-01-16T13:52:45;33.10;;;16.15;;
42084;SDS011;27746;52.228;20.890;2023-01-16T13:55:19;27.83;;;15.57;;
42084;SDS011;27746;52.228;20.890;2023-01-16T13:57:53;25.90;;;14.00;;
42084;SDS011;27746;52.228;20.890;2023-01-16T14:00:22;29.48;;;15.63;;
42084;SDS011;27746;52.228;20.890;2023-01-16T14:03:00;25.25;;;14.98;;
42084;SDS011;27746;52.228;20.890;2023-01-16T14:05:44;26.35;;;15.32;;
42084;SDS011;27746;52.228;20.890;2023-01-16T14:08:18;26.48;;;15.05;;
42084;SDS011;27746;52.228;20.890;2023-01-16T14:11:28;27.63;;;16.35;;
42084;SDS011;27746;52.228;20.890;2023-01-16T14:17:08;30.77;;;15.20;;
42084;SDS011;27746;52.228;20.890;2023-01-16T14:19:35;31.52;;;16.65;;
42084;SDS011;27746;52.228;20.890;2023-01-16T14:22:05;29.20;;;16.17;;
42084;SDS011;27746;52.228;20.890;2023-01-16T14:24:51;33.80;;;17.00;;
42084;SDS011;27746;52.228;20.890;2023-01-16T14:27:21;32.45;;;15.50;;
42084;SDS011;27746;52.228;20.890;2023-01-16T14:29:50;32.35;;;17.40;;
42084;SDS011;27746;52.228;20.890;2023-01-16T14:32:23;29.08;;;16.50;;
42084;SDS011;27746;52.228;20.890;2023-01-16T14:34:52;43.10;;;18.58;;
42084;SDS011;27746;52.228;20.890;2023-01-16T14:37:24;29.42;;;17.23;;
42084;SDS011;27746;52.228;20.890;2023-01-16T14:39:55;28.20;;;15.43;;
42084;SDS011;27746;52.228;20.890;2023-01-16T14:42:26;32.53;;;17.67;;
42084;SDS011;27746;52.228;20.890;2023-01-16T14:45:21;40.72;;;17.75;;
42084;SDS011;27746;52.228;20.890;2023-01-16T14:48:34;35.63;;;17.13;;
42084;SDS011;27746;52.228;20.890;2023-01-16T14:51:27;31.90;;;16.65;;
42084;SDS011;27746;52.228;20.890;2023-01-16T14:57:03;31.40;;;15.48;;
42084;SDS011;27746;52.228;20.890;2023-01-16T14:59:35;35.28;;;15.07;;
42084;SDS011;27746;52.228;20.890;2023-01-16T15:02:06;26.90;;;16.20;;
42084;SDS011;27746;52.228;20.890;2023-01-16T15:04:56;32.40;;;15.68;;
42084;SDS011;27746;52.228;20.890;2023-01-16T15:07:31;25.73;;;15.13;;
42084;SDS011;27746;52.228;20.890;2023-01-16T15:10:04;31.75;;;15.95;;
42084;SDS011;27746;52.228;20.890;2023-01-16T15:12:36;27.42;;;13.82;;
42084;SDS011;27746;52.228;20.890;2023-01-16T15:15:04;24.92;;;14.52;;
42084;SDS011;27746;52.228;20.890;2023-01-16T15:17:33;27.00;;;15.80;;